Latest Coastal Weather Observations for Gold Coast Seaway

IDQ60701

Issued at 6:55 am EST Monday 21 April 2014 (issued every 10 minutes, with the page automatically refreshed every 10 minutes)

About coastal observations | Map of coastal stations | Coastal observations for QLD | Marine services | Other Formats
Station Details ID: 040764 Name: GOLD COAST SEAWAY Lat: -27.94 Lon: 153.43 Height: 2.98 m
Data from the previous 72 hours. | See also: Recent months at Gold Coast Seaway
Date/Time
EST
Temp

°C
Wind Pressure Rain
since 9am
mm
Weather Cloud Vis
km
Sea
Height
m
Swell
Dir
 
Speed
knots
Gust
knots
hPa Trend Height
m
Period
s
Dir
21/06:30am 18.1 WNW 5 6 1019.8 - 0.0 - - - - - - -
21/06:00am 18.0 W 4 5 1019.5 - 0.0 - - - - - - -
21/05:30am 17.8 W 5 5 1019.2 - 0.0 - - - - - - -
21/05:00am 18.0 WSW 5 5 1019.0 - 0.0 - - - - - - -
21/04:30am 18.1 WSW 6 6 1018.7 - 0.0 - - - - - - -
21/04:00am 17.9 WSW 6 6 1018.4 - 0.0 - - - - - - -
21/03:30am 18.1 W 5 6 1018.1 - 0.0 - - - - - - -
21/03:00am 18.4 W 5 6 1018.1 - 0.0 - - - - - - -
21/02:30am 18.6 W 5 5 1018.1 - 0.0 - - - - - - -
21/02:00am 18.9 W 6 6 1018.2 - 0.0 - - - - - - -
21/01:30am 18.7 W 5 6 1018.3 - 0.0 - - - - - - -
21/01:00am 17.7 WNW 4 5 1018.4 - 0.0 - - - - - - -
21/12:30am 18.3 CALM 0 0 1018.5 - 0.0 - - - - - - -
21/12:00am 19.1 WNW 5 6 1018.5 - 0.0 - - - - - - -
 
Date/Time
EST
Temp

°C
Wind Pressure Rain
since 9am
mm
Weather Cloud Vis
km
Sea
Height
m
Swell
Dir
 
Speed
knots
Gust
knots
hPa Trend Height
m
Period
s
Dir
20/11:30pm 18.9 WNW 6 7 1018.5 - 0.0 - - - - - - -
20/11:00pm 19.5 WSW 4 5 1018.7 - 0.0 - - - - - - -
20/10:30pm 20.1 WSW 5 6 1018.8 - 0.0 - - - - - - -
20/10:00pm 20.4 WSW 5 5 1018.6 - 0.0 - - - - - - -
20/09:30pm 20.5 W 5 6 1018.6 - 0.0 - - - - - - -
20/09:00pm 21.1 WNW 5 6 1018.3 - 0.0 - - - - - - -
20/08:30pm 21.3 NW 5 5 1018.2 - 0.0 - - - - - - -
20/08:00pm 22.4 NW 6 7 1018.1 - 0.0 - - - - - - -
20/07:30pm 23.6 N 11 14 1017.7 - 0.0 - - - - - - -
20/07:00pm 23.4 NNE 11 13 1017.4 - 0.0 - - - - - - -
20/06:30pm 23.5 NNE 12 14 1017.2 - 0.0 - - - - - - -
20/06:00pm 23.6 NNE 12 15 1016.9 - 0.0 - - - - - - -
20/05:30pm 23.7 NNE 12 15 1016.5 - 0.0 - - - - - - -
20/05:00pm 24.2 NNE 13 15 1016.2 - 0.0 - - - - - - -
20/04:30pm 24.9 NE 13 14 1015.9 - 0.0 - - - - - - -
20/04:00pm 25.5 NNE 13 16 1015.8 - 0.0 - - - - - - -
20/03:30pm 25.8 NNE 14 16 1015.7 - 0.0 - - - - - - -
20/03:00pm 26.1 NE 13 14 1015.6 - 0.0 - - - - - - -
20/02:30pm 25.2 NE 11 13 1015.8 - 0.0 - - - - - - -
20/02:00pm 26.3 NE 12 14 1015.8 - 0.0 - - - - - - -
20/01:30pm 26.5 NE 11 13 1015.8 - 0.0 - - - - - - -
20/01:00pm 26.8 NE 9 11 1016.1 - 0.0 - - - - - - -
20/12:30pm 26.9 NE 9 11 1016.4 - 0.0 - - - - - - -
20/12:00pm 25.4 NE 9 10 1016.9 - 0.0 - - - - - - -
20/11:30am 27.0 ENE 8 9 1017.4 - 0.0 - - - - - - -
20/11:00am 26.8 ENE 6 7 1017.7 - 0.0 - - - - - - -
20/10:30am 26.0 ENE 6 7 1018.1 - 0.0 - - - - - - -
20/10:00am 26.4 NW 4 5 1018.3 - 0.0 - - - - - - -
20/09:30am 25.6 W 3 4 1018.3 - 0.0 - - - - - - -
20/09:00am 24.2 W 4 4 1018.3 - 0.0 - - - - - - -
20/08:30am 22.8 W 5 6 1018.2 - 0.0 - - - - - - -
20/08:00am 21.2 WSW 4 6 1018.0 - 0.0 - - - - - - -
20/07:30am 19.8 WSW 5 7 1017.8 - 0.0 - - - - - - -
20/07:00am 18.3 WSW 6 7 1017.4 - 0.0 - - - - - - -
20/06:30am 17.4 SW 5 7 1017.1 - 0.0 - - - - - - -
20/06:00am 17.1 SSW 4 6 1016.8 - 0.0 - - - - - - -
20/05:30am 17.1 SW 6 8 1016.4 - 0.0 - - - - - - -
20/05:00am 17.4 SW 6 7 1016.2 - 0.0 - - - - - - -
20/04:30am 17.6 SW 7 8 1016.0 - 0.0 - - - - - - -
20/04:00am 17.6 SW 7 9 1015.8 - 0.0 - - - - - - -
20/03:30am 17.5 SW 7 8 1015.8 - 0.0 - - - - - - -
20/03:00am 17.6 SW 7 9 1015.7 - 0.0 - - - - - - -
20/02:30am 17.5 SW 6 8 1015.8 - 0.0 - - - - - - -
20/02:00am 17.6 SW 6 7 1015.7 - 0.0 - - - - - - -
20/01:30am 17.8 SW 6 7 1015.9 - 0.0 - - - - - - -
20/01:00am 18.0 SW 5 8 1016.1 - 0.0 - - - - - - -
20/12:30am 18.3 SW 6 7 1016.3 - 0.0 - - - - - - -
20/12:00am 18.5 SW 6 8 1016.4 - 0.0 - - - - - - -
 
Date/Time
EST
Temp

°C
Wind Pressure Rain
since 9am
mm
Weather Cloud Vis
km
Sea
Height
m
Swell
Dir
 
Speed
knots
Gust
knots
hPa Trend Height
m
Period
s
Dir
19/11:30pm 18.8 WSW 5 6 1016.4 - 0.0 - - - - - - -
19/11:00pm 18.9 WSW 5 6 1016.4 - 0.0 - - - - - - -
19/10:30pm 19.2 WSW 5 6 1016.4 - 0.0 - - - - - - -
19/10:00pm 19.1 SW 6 7 1016.3 - 0.0 - - - - - - -
19/09:30pm 19.6 SW 6 8 1016.4 - 0.0 - - - - - - -
19/09:00pm 20.3 S 2 5 1016.2 - 0.0 - - - - - - -
19/08:30pm 22.4 ESE 6 8 1016.0 - 0.0 - - - - - - -
19/08:00pm 22.9 ESE 7 9 1015.8 - 0.0 - - - - - - -
19/07:30pm 23.0 ESE 8 11 1015.6 - 0.0 - - - - - - -
19/07:00pm 23.1 ESE 9 10 1015.1 - 0.0 - - - - - - -
19/06:30pm 23.1 ESE 9 11 1014.7 - 0.0 - - - - - - -
19/06:00pm 23.3 SE 12 14 1014.4 - 0.0 - - - - - - -
19/05:30pm 23.4 SE 11 14 1014.2 - 0.0 - - - - - - -
19/05:00pm 23.8 ESE 12 15 1013.9 - 0.0 - - - - - - -
19/04:30pm 24.4 SE 11 14 1013.5 - 0.0 - - - - - - -
19/04:00pm 24.9 ESE 12 14 1013.4 - 0.0 - - - - - - -
19/03:30pm 25.4 ESE 11 13 1013.2 - 0.0 - - - - - - -
19/03:00pm 25.8 ESE 11 15 1013.2 - 0.0 - - - - - - -
19/02:30pm 26.2 ESE 10 12 1013.2 - 0.0 - - - - - - -
19/02:00pm 26.5 E 9 11 1013.2 - 0.0 - - - - - - -
19/01:30pm 26.7 ESE 9 10 1013.3 - 0.0 - - - - - - -
19/01:00pm 27.0 ESE 7 10 1013.6 - 0.0 - - - - - - -
19/12:30pm 26.8 E 8 10 1014.0 - 0.0 - - - - - - -
19/12:00pm 26.3 E 8 9 1014.3 - 0.0 - - - - - - -
19/11:30am 26.5 E 8 9 1015.0 - 0.0 - - - - - - -
19/11:00am 26.1 E 8 9 1015.4 - 0.0 - - - - - - -
19/10:30am 26.2 E 6 7 1015.8 - 0.0 - - - - - - -
19/10:00am 26.5 W 4 6 1016.0 - 0.0 - - - - - - -
19/09:30am 25.6 SSW 4 7 1016.1 - 0.0 - - - - - - -
19/09:00am 24.3 W 4 5 1016.4 - 0.0 - - - - - - -
19/08:30am 23.0 WNW 5 7 1016.3 - 0.0 - - - - - - -
19/08:00am 21.4 W 6 7 1016.2 - 0.0 - - - - - - -
19/07:30am 20.0 W 5 7 1016.1 - 0.0 - - - - - - -
19/07:00am 18.7 WSW 6 8 1015.8 - 0.0 - - - - - - -
19/06:30am 17.9 WSW 6 8 1015.7 - 0.0 - - - - - - -
19/06:00am 17.5 WSW 6 8 1015.5 - 0.0 - - - - - - -
19/05:30am 17.6 WSW 5 6 1015.3 - 0.0 - - - - - - -
19/05:00am 17.5 WSW 6 7 1015.1 - 0.0 - - - - - - -
19/04:30am 17.6 W 6 7 1014.9 - 0.0 - - - - - - -
19/04:00am 17.0 SW 2 4 1014.7 - 0.0 - - - - - - -
19/03:30am 18.0 SW 4 5 1014.8 - 0.0 - - - - - - -
19/03:00am 18.1 SW 4 5 1015.0 - 0.0 - - - - - - -
19/02:30am 18.5 SW 5 6 1015.1 - 0.0 - - - - - - -
19/02:00am 18.2 SW 4 5 1015.2 - 0.0 - - - - - - -
19/01:30am 18.8 WSW 5 6 1015.3 - 0.0 - - - - - - -
19/01:00am 18.9 SW 4 5 1015.5 - 0.0 - - - - - - -
19/12:30am 18.8 SW 5 7 1015.6 - 0.0 - - - - - - -
19/12:00am 19.1 WSW 4 5 1015.6 - 0.0 - - - - - - -
 
Date/Time
EST
Temp

°C
Wind Pressure Rain
since 9am
mm
Weather Cloud Vis
km
Sea
Height
m
Swell
Dir
 
Speed
knots
Gust
knots
hPa Trend Height
m
Period
s
Dir
18/11:30pm 19.5 WSW 3 4 1015.7 - 0.0 - - - - - - -
18/11:00pm 19.8 WSW 4 4 1015.9 - 0.0 - - - - - - -
18/10:30pm 20.0 WSW 3 5 1016.0 - 0.0 - - - - - - -
18/10:00pm 20.5 WSW 5 6 1016.1 - 0.0 - - - - - - -
18/09:30pm 21.3 WSW 5 6 1016.1 - 0.0 - - - - - - -
18/09:00pm 22.9 NE 7 9 1015.9 - 0.0 - - - - - - -
18/08:30pm 23.0 NE 7 8 1015.7 - 0.0 - - - - - - -
18/08:00pm 22.9 NE 6 8 1015.6 - 0.0 - - - - - - -
18/07:30pm 22.6 NE 8 9 1015.3 - 0.0 - - - - - - -
18/07:00pm 22.3 NE 7 9 1014.9 - 0.0 - - - - - - -
18/06:30pm 22.4 ENE 7 8 1014.6 - 0.0 - - - - - - -
18/06:00pm 22.4 ENE 7 8 1014.4 - 0.0 - - - - - - -
18/05:30pm 22.5 ENE 7 8 1014.2 - 0.0 - - - - - - -
18/05:00pm 23.2 ENE 7 8 1014.1 - 0.0 - - - - - - -
18/04:30pm 24.0 ENE 5 7 1013.8 - 0.0 - - - - - - -
18/04:00pm 24.3 E 6 9 1013.6 - 0.0 - - - - - - -
18/03:30pm 24.6 E 7 8 1013.5 - 0.0 - - - - - - -
18/03:00pm 24.9 ESE 9 13 1013.2 - 0.0 - - - - - - -
18/02:30pm 25.3 E 9 10 1013.5 - 0.0 - - - - - - -
18/02:00pm 25.4 E 9 12 1013.6 - 0.0 - - - - - - -
18/01:30pm 25.8 E 8 10 1013.7 - 0.0 - - - - - - -
18/01:00pm 25.8 E 9 11 1014.0 - 0.0 - - - - - - -
18/12:30pm 25.8 E 7 8 1014.4 - 0.0 - - - - - - -
18/12:00pm 25.6 ENE 7 9 1014.9 - 0.0 - - - - - - -
18/11:30am 25.7 ENE 6 8 1015.4 - 0.0 - - - - - - -
18/11:00am 25.4 SE 4 5 1016.0 - 0.0 - - - - - - -
18/10:30am 25.2 SE 5 8 1016.4 - 0.0 - - - - - - -
18/10:00am 23.0 SSE 6 8 1016.6 - 0.0 - - - - - - -
18/09:30am 23.5 SSE 6 7 1016.9 - 0.0 - - - - - - -
18/09:00am 22.8 SSE 6 7 1017.0 - 0.0 - - - - - - -
18/08:30am 22.5 S 4 6 1017.1 - 0.0 - - - - - - -
18/08:00am 20.6 SW 4 5 1017.1 - 0.0 - - - - - - -
18/07:30am 19.1 SSW 4 5 1017.0 - 0.0 - - - - - - -
18/07:00am 17.8 SSW 4 5 1016.8 - 0.0 - - - - - - -

Other Formats:

Comma delimited format used in spreadsheet applications
http://www.bom.gov.au/fwo/IDQ60701/IDQ60701.94580.axf

JavaScript Object Notation format (JSON) in row-major order
http://www.bom.gov.au/fwo/IDQ60701/IDQ60701.94580.json